createdAt,value
2019-05-13T00:02:04.946Z,1.37
2019-05-13T00:04:34.599Z,1.42
2019-05-13T00:07:04.739Z,1.47
2019-05-13T00:09:34.327Z,1.98
2019-05-13T00:12:04.603Z,2.10
2019-05-13T00:14:34.634Z,1.37
2019-05-13T00:17:04.585Z,1.75
2019-05-13T00:19:34.027Z,1.60
2019-05-13T00:22:03.976Z,1.65
2019-05-13T00:24:34.049Z,1.32
2019-05-13T00:27:04.078Z,2.35
2019-05-13T00:29:34.167Z,1.92
2019-05-13T00:32:04.723Z,1.40
2019-05-13T00:34:35.358Z,1.70
2019-05-13T00:37:11.088Z,1.30
2019-05-13T00:39:36.661Z,2.10
2019-05-13T00:42:06.218Z,1.30
2019-05-13T00:44:35.726Z,1.62
2019-05-13T00:47:05.013Z,1.65
2019-05-13T00:49:34.652Z,1.60
2019-05-13T00:52:04.425Z,1.50
2019-05-13T00:54:34.214Z,1.90
2019-05-13T00:57:04.346Z,2.02
2019-05-13T00:59:34.266Z,1.60
2019-05-13T01:02:04.673Z,1.47
2019-05-13T01:04:34.179Z,1.42
2019-05-13T01:07:04.325Z,1.42
2019-05-13T01:09:34.484Z,1.65
2019-05-13T01:12:04.802Z,1.45
2019-05-13T01:14:34.382Z,1.40
2019-05-13T01:17:04.171Z,1.80
2019-05-13T01:19:34.847Z,1.75
2019-05-13T01:22:04.518Z,1.45
2019-05-13T01:24:34.074Z,1.45
2019-05-13T01:27:04.317Z,1.85
2019-05-13T01:29:34.668Z,1.80
2019-05-13T01:32:04.693Z,2.00
2019-05-13T01:34:34.243Z,2.35
2019-05-13T01:37:04.169Z,1.95
2019-05-13T01:39:34.994Z,1.70
2019-05-13T01:42:04.694Z,2.20
2019-05-13T01:44:33.967Z,2.20
2019-05-13T01:47:04.549Z,1.90
2019-05-13T01:49:34.076Z,2.58
2019-05-13T01:52:04.005Z,1.72
2019-05-13T01:54:34.065Z,1.70
2019-05-13T01:57:04.436Z,2.22
2019-05-13T01:59:34.815Z,2.12
2019-05-13T02:02:04.919Z,2.20
2019-05-13T02:04:34.181Z,2.15
2019-05-13T02:07:04.003Z,2.10
2019-05-13T02:09:34.275Z,2.00
2019-05-13T02:12:04.925Z,1.82
2019-05-13T02:14:35.582Z,1.80
2019-05-13T02:17:04.863Z,2.08
2019-05-13T02:19:34.453Z,1.80
2019-05-13T02:22:04.810Z,2.55
2019-05-13T02:24:34.452Z,2.12
2019-05-13T02:27:04.175Z,1.87
2019-05-13T02:29:34.399Z,2.30
2019-05-13T02:32:04.219Z,1.95
2019-05-13T02:34:33.744Z,2.40
2019-05-13T02:37:03.529Z,2.22
2019-05-13T02:39:33.180Z,2.40
2019-05-13T02:42:03.888Z,2.15
2019-05-13T02:44:34.225Z,1.95
2019-05-13T02:47:03.896Z,2.33
2019-05-13T02:49:33.547Z,2.37
2019-05-13T02:52:04.162Z,1.98
2019-05-13T02:54:34.411Z,1.70
2019-05-13T02:57:04.330Z,1.92
2019-05-13T02:59:34.048Z,2.30
2019-05-13T03:02:03.989Z,2.40
2019-05-13T03:04:33.627Z,2.40
2019-05-13T03:07:03.322Z,3.15
2019-05-13T03:09:32.965Z,2.45
2019-05-13T03:12:03.958Z,2.20
2019-05-13T03:14:33.215Z,3.45
2019-05-13T03:17:04.138Z,3.00
2019-05-13T03:19:33.515Z,2.50
2019-05-13T03:22:03.365Z,2.70
2019-05-13T03:24:34.114Z,2.70
2019-05-13T03:27:03.725Z,2.60
2019-05-13T03:29:33.327Z,3.08
2019-05-13T03:32:06.788Z,2.58
2019-05-13T03:34:35.777Z,3.33
2019-05-13T03:37:06.728Z,3.02
2019-05-13T03:39:35.934Z,3.75
2019-05-13T03:42:05.468Z,2.70
2019-05-13T03:44:36.313Z,2.02
2019-05-13T03:47:06.609Z,2.42
2019-05-13T03:49:36.761Z,2.20
2019-05-13T03:52:06.353Z,2.35
2019-05-13T03:54:35.655Z,2.87
2019-05-13T03:57:05.301Z,2.75
2019-05-13T03:59:34.593Z,1.72
2019-05-13T04:02:04.130Z,2.98
2019-05-13T04:04:33.872Z,2.20
2019-05-13T04:07:04.202Z,2.80
2019-05-13T04:09:36.232Z,2.87
2019-05-13T04:12:06.422Z,2.20
2019-05-13T04:14:36.019Z,2.05
2019-05-13T04:17:05.291Z,2.67
2019-05-13T04:19:34.594Z,2.37
2019-05-13T04:22:04.023Z,3.60
2019-05-13T04:24:34.497Z,2.20
2019-05-13T04:27:04.129Z,2.60
2019-05-13T04:29:33.783Z,2.72
2019-05-13T04:32:04.179Z,3.22
2019-05-13T04:34:34.161Z,2.50
2019-05-13T04:37:03.758Z,2.72
2019-05-13T04:39:45.244Z,3.25
2019-05-13T04:42:04.297Z,2.35
2019-05-13T04:44:34.051Z,2.65
2019-05-13T04:47:04.237Z,3.10
2019-05-13T04:49:33.751Z,2.67
2019-05-13T04:52:04.056Z,3.02
2019-05-13T04:54:34.744Z,2.90
2019-05-13T04:57:04.220Z,3.10
2019-05-13T04:59:35.835Z,3.60
2019-05-13T05:02:41.993Z,2.50
2019-05-13T05:05:22.522Z,4.40
2019-05-13T05:08:03.128Z,2.98
2019-05-13T05:10:38.809Z,2.77
2019-05-13T05:13:39.184Z,3.15
2019-05-13T05:16:17.124Z,3.15
2019-05-13T05:19:23.803Z,2.52
2019-05-13T05:22:08.247Z,2.00
2019-05-13T05:24:52.599Z,2.65
2019-05-13T05:27:41.917Z,2.65
2019-05-13T05:30:35.059Z,2.40
2019-05-13T05:33:33.594Z,2.87
2019-05-13T05:36:27.280Z,2.65
2019-05-13T05:39:08.801Z,3.52
2019-05-13T05:41:42.099Z,2.67
2019-05-13T05:44:12.747Z,3.25
2019-05-13T05:46:42.886Z,1.92
2019-05-13T05:49:12.875Z,2.52
2019-05-13T05:51:43.783Z,2.50
2019-05-13T05:54:14.730Z,1.75
2019-05-13T05:56:47.167Z,2.85
2019-05-13T05:59:21.664Z,2.20
2019-05-13T06:01:52.711Z,2.50
2019-05-13T06:04:23.808Z,2.55
2019-05-13T06:06:56.289Z,2.62
2019-05-13T06:09:26.062Z,2.55
2019-05-13T06:11:55.702Z,2.77
2019-05-13T06:14:25.062Z,2.08
2019-05-13T06:16:54.359Z,2.55
2019-05-13T06:19:23.978Z,2.20
2019-05-13T06:21:53.433Z,2.20
2019-05-13T06:24:26.314Z,2.10
2019-05-13T06:26:54.237Z,2.22
2019-05-13T06:29:23.846Z,1.90
2019-05-13T06:31:53.206Z,2.20
2019-05-13T06:34:22.854Z,2.00
2019-05-13T06:36:53.173Z,2.17
2019-05-13T06:39:22.799Z,1.77
2019-05-13T06:41:52.102Z,1.37
2019-05-13T06:44:21.576Z,1.73
2019-05-13T06:46:51.701Z,1.73
2019-05-13T06:49:21.782Z,1.32
2019-05-13T06:51:52.664Z,2.20
2019-05-13T06:54:22.313Z,2.23
2019-05-13T06:56:51.914Z,1.53
2019-05-13T06:59:22.521Z,1.80
2019-05-13T07:01:52.293Z,1.50
2019-05-13T07:04:22.058Z,1.53
2019-05-13T07:07:01.099Z,1.27
2019-05-13T07:09:22.432Z,1.60
2019-05-13T07:11:52.034Z,0.97
2019-05-13T07:14:22.346Z,2.17
2019-05-13T07:16:52.437Z,1.23
2019-05-13T07:19:23.922Z,1.60
2019-05-13T07:21:53.192Z,1.40
2019-05-13T07:24:22.792Z,1.20
2019-05-13T07:26:52.398Z,1.33
2019-05-13T07:29:24.209Z,1.20
2019-05-13T07:31:52.883Z,1.40
2019-05-13T07:34:24.567Z,1.57
2019-05-13T07:36:53.510Z,1.50
2019-05-13T07:39:22.875Z,1.27
2019-05-13T07:41:52.518Z,1.13
2019-05-13T07:44:22.427Z,1.30
2019-05-13T07:46:52.756Z,0.97
2019-05-13T07:49:22.646Z,1.57
2019-05-13T07:51:52.394Z,1.23
2019-05-13T07:54:22.164Z,1.80
2019-05-13T07:56:52.459Z,1.20
2019-05-13T07:59:21.912Z,1.53
2019-05-13T08:01:52.222Z,0.93
2019-05-13T08:04:26.069Z,1.50
2019-05-13T08:06:53.243Z,1.63
2019-05-13T08:09:22.816Z,1.80
2019-05-13T08:12:05.396Z,6.80
2019-05-13T08:14:23.408Z,1.83
2019-05-13T08:16:53.068Z,2.10
2019-05-13T08:19:22.383Z,1.30
2019-05-13T08:21:52.762Z,1.17
2019-05-13T08:24:22.788Z,1.57
2019-05-13T08:26:54.486Z,1.80
2019-05-13T08:29:26.044Z,1.67
2019-05-13T08:31:58.058Z,1.67
2019-05-13T08:34:27.699Z,1.17
2019-05-13T08:36:57.302Z,1.80
2019-05-13T08:39:31.695Z,1.40
2019-05-13T08:42:11.835Z,1.90
2019-05-13T08:44:28.969Z,0.83
2019-05-13T08:47:02.622Z,1.63
2019-05-13T08:49:32.554Z,1.50
2019-05-13T08:52:02.283Z,1.30
2019-05-13T08:54:32.938Z,1.40
2019-05-13T08:57:03.367Z,1.63
2019-05-13T08:59:32.769Z,1.53
2019-05-13T09:02:03.330Z,1.50
2019-05-13T09:04:33.127Z,2.13
2019-05-13T09:07:03.599Z,1.63
2019-05-13T09:09:33.163Z,1.40
2019-05-13T09:12:02.875Z,1.50
2019-05-13T09:14:32.632Z,1.30
2019-05-13T09:17:03.439Z,1.40
2019-05-13T09:19:32.741Z,1.30
2019-05-13T09:22:02.894Z,0.90
2019-05-13T09:24:37.626Z,1.17
2019-05-13T09:27:04.099Z,1.23
2019-05-13T09:29:33.382Z,1.20
2019-05-13T09:34:33.789Z,1.40
2019-05-13T09:37:04.243Z,1.10
2019-05-13T09:39:33.548Z,1.07
2019-05-13T09:42:03.174Z,1.30
2019-05-13T09:44:33.199Z,1.40
2019-05-13T09:47:03.073Z,1.00
2019-05-13T09:49:33.212Z,1.50
2019-05-13T09:52:03.789Z,1.30
2019-05-13T09:54:33.417Z,1.70
2019-05-13T09:57:03.737Z,1.40
2019-05-13T09:59:33.039Z,1.40
2019-05-13T10:02:03.301Z,1.30
2019-05-13T10:04:32.797Z,1.93
2019-05-13T10:07:03.065Z,1.20
2019-05-13T10:09:32.955Z,1.00
2019-05-13T10:12:03.506Z,1.40
2019-05-13T10:14:33.313Z,1.40
2019-05-13T10:17:05.927Z,1.33
2019-05-13T10:19:33.660Z,1.43
2019-05-13T10:22:03.681Z,1.20
2019-05-13T10:24:33.514Z,1.23
2019-05-13T10:27:03.262Z,1.10
2019-05-13T10:29:33.118Z,1.27
2019-05-13T10:32:03.626Z,0.80
2019-05-13T10:34:34.356Z,1.10
2019-05-13T10:37:03.991Z,1.33
2019-05-13T10:39:34.267Z,1.10
2019-05-13T10:42:04.123Z,1.17
2019-05-13T10:44:33.858Z,1.40
2019-05-13T10:47:03.450Z,1.10
2019-05-13T10:49:33.419Z,1.30
2019-05-13T10:52:03.376Z,1.30
2019-05-13T10:54:33.095Z,0.90
2019-05-13T10:57:03.931Z,1.07
2019-05-13T10:59:33.605Z,1.40
2019-05-13T11:02:03.239Z,1.23
2019-05-13T11:04:33.006Z,1.20
2019-05-13T11:07:03.650Z,1.57
2019-05-13T11:09:33.233Z,1.27
2019-05-13T11:12:03.510Z,1.13
2019-05-13T11:14:32.842Z,1.10
2019-05-13T11:17:02.148Z,1.10
2019-05-13T11:19:36.250Z,1.23
2019-05-13T11:22:03.106Z,1.00
2019-05-13T11:24:32.727Z,1.20
2019-05-13T11:27:02.971Z,1.27
2019-05-13T11:29:32.624Z,1.17
2019-05-13T11:32:02.934Z,1.00
2019-05-13T11:34:33.090Z,1.37
2019-05-13T11:37:03.747Z,1.30
2019-05-13T11:39:34.233Z,1.17
2019-05-13T11:42:03.542Z,1.13
2019-05-13T11:44:32.828Z,1.47
2019-05-13T11:47:02.932Z,1.40
2019-05-13T11:49:32.544Z,0.97
2019-05-13T11:52:03.298Z,1.53
2019-05-13T11:54:32.709Z,1.80
2019-05-13T11:57:06.250Z,1.00
2019-05-13T11:59:34.271Z,1.90
2019-05-13T12:02:04.806Z,1.50
2019-05-13T12:04:34.939Z,1.50
2019-05-13T12:07:05.444Z,1.30
2019-05-13T12:09:34.767Z,1.60
2019-05-13T12:12:04.174Z,1.40
2019-05-13T12:14:48.426Z,1.37
2019-05-13T12:17:05.574Z,1.60
2019-05-13T12:19:34.858Z,1.70
2019-05-13T12:22:04.209Z,1.80
2019-05-13T12:24:33.843Z,2.10
2019-05-13T12:27:03.839Z,1.30
2019-05-13T12:29:33.456Z,2.10
2019-05-13T12:32:03.451Z,1.70
2019-05-13T12:34:40.439Z,2.50
2019-05-13T12:37:04.550Z,2.80
2019-05-13T12:39:34.038Z,1.60
2019-05-13T12:42:03.777Z,2.13
2019-05-13T12:44:33.771Z,1.57
2019-05-13T12:47:03.513Z,1.80
2019-05-13T12:49:36.375Z,1.87
2019-05-13T12:52:04.793Z,1.33
2019-05-13T12:54:34.337Z,2.00
2019-05-13T12:57:03.922Z,2.30
2019-05-13T12:59:33.585Z,2.50
2019-05-13T13:02:03.493Z,1.83
2019-05-13T13:04:33.819Z,2.17
2019-05-13T13:07:03.525Z,2.10
2019-05-13T13:09:33.737Z,1.90
2019-05-13T13:12:03.464Z,1.63
2019-05-13T13:17:04.429Z,1.73
2019-05-13T13:19:34.273Z,1.87
2019-05-13T13:22:07.885Z,2.03
2019-05-13T13:24:35.894Z,1.90
2019-05-13T13:27:14.574Z,2.40
2019-05-13T13:29:36.855Z,2.23
2019-05-13T13:32:06.218Z,1.87
2019-05-13T13:34:35.874Z,2.10
2019-05-13T13:37:05.450Z,1.60
2019-05-13T13:39:35.206Z,2.00
2019-05-13T13:42:05.719Z,2.17
2019-05-13T13:44:35.322Z,1.53
2019-05-13T13:47:04.678Z,1.87
2019-05-13T13:49:35.322Z,2.20
2019-05-13T13:52:06.157Z,2.17
2019-05-13T13:54:35.763Z,2.13
2019-05-13T13:57:05.093Z,2.17
2019-05-13T13:59:36.031Z,2.17
2019-05-13T14:02:05.877Z,2.40
2019-05-13T14:04:36.328Z,2.10
2019-05-13T14:06:25.162Z,1.40
2019-05-13T14:06:50.058Z,1.60
2019-05-13T14:07:22.954Z,1.73
2019-05-13T14:09:36.856Z,2.10
2019-05-13T14:12:06.154Z,1.70
2019-05-13T14:14:35.740Z,1.87
2019-05-13T14:17:05.453Z,1.77
2019-05-13T14:19:34.743Z,2.43
2019-05-13T14:22:04.252Z,2.13
2019-05-13T14:24:33.534Z,1.90
2019-05-13T14:27:03.244Z,2.23
2019-05-13T14:29:40.497Z,2.37
2019-05-13T14:32:03.750Z,1.90
2019-05-13T14:34:33.080Z,1.60
2019-05-13T14:37:02.351Z,2.40
2019-05-13T14:39:32.025Z,1.50
2019-05-13T14:42:02.787Z,1.73
2019-05-13T14:44:32.602Z,1.80
2019-05-13T14:47:02.009Z,1.60
2019-05-13T14:49:31.845Z,2.10
2019-05-13T14:52:01.440Z,2.10
2019-05-13T14:54:31.318Z,2.70
2019-05-13T14:57:02.388Z,2.30
2019-05-13T14:59:31.919Z,2.30
2019-05-13T15:02:01.510Z,2.00
2019-05-13T15:04:32.526Z,1.80
2019-05-13T15:07:03.457Z,2.30
2019-05-13T15:09:33.070Z,2.10
2019-05-13T15:12:02.490Z,2.23
2019-05-13T15:14:32.987Z,2.53
2019-05-13T15:17:07.089Z,2.20
2019-05-13T15:19:33.694Z,1.70
2019-05-13T15:22:03.370Z,2.00
2019-05-13T15:24:32.710Z,1.93
2019-05-13T15:27:02.120Z,2.10
2019-05-13T15:29:31.551Z,2.50
2019-05-13T15:32:02.114Z,1.70
2019-05-13T15:34:31.940Z,2.00
2019-05-13T15:37:02.092Z,1.80
2019-05-13T15:39:32.296Z,2.10
2019-05-13T15:42:02.221Z,1.63
2019-05-13T15:44:32.920Z,2.40
2019-05-13T15:47:07.212Z,1.47
2019-05-13T15:49:33.464Z,1.93
2019-05-13T15:52:02.757Z,2.47
2019-05-13T15:54:32.711Z,2.07
2019-05-13T15:57:02.535Z,1.40
2019-05-13T15:59:32.010Z,2.10
2019-05-13T16:02:02.417Z,1.60
2019-05-13T16:04:32.319Z,1.83
2019-05-13T16:07:01.951Z,1.27
2019-05-13T16:09:31.530Z,2.07
2019-05-13T16:12:01.726Z,1.60
2019-05-13T16:14:31.668Z,1.57
2019-05-13T16:17:01.181Z,1.60
2019-05-13T16:19:32.685Z,1.97
2019-05-13T16:22:02.049Z,1.80
2019-05-13T16:24:32.255Z,1.93
2019-05-13T16:27:02.580Z,1.40
2019-05-13T16:29:32.177Z,1.50
2019-05-13T16:32:01.797Z,1.60
2019-05-13T16:34:31.863Z,1.90
2019-05-13T16:37:02.434Z,1.00
2019-05-13T16:39:32.164Z,1.43
2019-05-13T16:42:01.730Z,1.50
2019-05-13T16:44:31.865Z,1.97
2019-05-13T16:47:01.680Z,1.40
2019-05-13T16:49:31.860Z,1.40
2019-05-13T16:52:02.505Z,1.50
2019-05-13T16:54:32.901Z,1.80
2019-05-13T16:57:02.490Z,1.60
2019-05-13T16:59:31.795Z,1.50
2019-05-13T17:02:01.781Z,1.90
2019-05-13T17:04:32.203Z,2.50
2019-05-13T17:07:01.845Z,1.97
2019-05-13T17:09:32.301Z,1.90
2019-05-13T17:12:01.995Z,2.20
2019-05-13T17:14:32.713Z,1.67
2019-05-13T17:17:03.082Z,1.83
2019-05-13T17:19:32.358Z,2.53
2019-05-13T17:22:02.583Z,2.97
2019-05-13T17:24:32.176Z,1.57
2019-05-13T17:27:02.441Z,2.00
2019-05-13T17:29:32.421Z,1.70
2019-05-13T17:32:02.538Z,1.70
2019-05-13T17:34:32.155Z,1.80
2019-05-13T17:37:02.755Z,1.40
2019-05-13T17:39:32.682Z,2.10
2019-05-13T17:42:03.936Z,1.53
2019-05-13T17:44:33.241Z,1.70
2019-05-13T17:47:02.519Z,1.73
2019-05-13T17:49:33.160Z,1.83
2019-05-13T17:52:02.689Z,1.90
2019-05-13T17:54:32.221Z,1.60
2019-05-13T17:57:02.072Z,1.93
2019-05-13T17:59:31.906Z,1.67
2019-05-13T18:02:02.659Z,1.93
2019-05-13T18:04:33.188Z,1.53
2019-05-13T18:07:02.490Z,1.67
2019-05-13T18:09:32.208Z,1.70
2019-05-13T18:12:02.358Z,2.17
2019-05-13T18:14:32.026Z,1.60
2019-05-13T18:17:02.111Z,2.30
2019-05-13T18:19:31.960Z,1.60
2019-05-13T18:22:02.271Z,1.80
2019-05-13T18:24:32.193Z,2.07
2019-05-13T18:27:02.017Z,1.40
2019-05-13T18:29:31.832Z,1.50
2019-05-13T18:32:02.036Z,1.60
2019-05-13T18:34:32.252Z,2.03
2019-05-13T18:37:02.636Z,1.97
2019-05-13T18:39:32.485Z,1.60
2019-05-13T18:42:01.861Z,1.70
2019-05-13T18:44:31.714Z,2.00
2019-05-13T18:47:01.652Z,1.83
2019-05-13T18:49:31.897Z,1.47
2019-05-13T18:52:01.433Z,1.40
2019-05-13T18:54:31.647Z,1.40
2019-05-13T18:57:01.797Z,1.47
2019-05-13T18:59:32.231Z,1.30
2019-05-13T19:02:01.824Z,1.80
2019-05-13T19:04:31.492Z,1.50
2019-05-13T19:07:02.307Z,1.90
2019-05-13T19:09:31.814Z,1.47
2019-05-13T19:12:01.634Z,2.07
2019-05-13T19:14:31.852Z,2.60
2019-05-13T19:17:01.891Z,1.90
2019-05-13T19:19:31.662Z,2.10
2019-05-13T19:22:02.281Z,2.00
2019-05-13T19:24:31.741Z,4.60
2019-05-13T19:27:01.663Z,5.10
2019-05-13T19:29:31.983Z,2.93
2019-05-13T19:32:02.054Z,3.10
2019-05-13T19:34:32.409Z,3.07
2019-05-13T19:37:02.594Z,3.67
2019-05-13T19:39:32.084Z,3.87
2019-05-13T19:42:01.382Z,2.67
2019-05-13T19:44:31.549Z,3.57
2019-05-13T19:47:01.928Z,3.53
2019-05-13T19:49:37.041Z,3.03
2019-05-13T19:52:03.965Z,3.00
2019-05-13T19:54:33.305Z,4.10
2019-05-13T19:57:02.836Z,8.47
2019-05-13T19:59:32.371Z,3.60
2019-05-13T20:02:02.050Z,3.00
2019-05-13T20:04:31.653Z,4.17
2019-05-13T20:07:00.917Z,3.47
2019-05-13T20:09:32.170Z,3.57
2019-05-13T20:12:02.025Z,3.03
2019-05-13T20:14:31.722Z,4.10
2019-05-13T20:17:01.705Z,4.27
2019-05-13T20:19:45.677Z,4.47
2019-05-13T20:22:02.489Z,5.33
2019-05-13T20:24:32.214Z,3.90
2019-05-13T20:27:01.821Z,4.70
2019-05-13T20:29:31.671Z,3.43
2019-05-13T20:32:01.453Z,4.07
2019-05-13T20:34:32.148Z,3.83
2019-05-13T20:37:02.185Z,2.97
2019-05-13T20:39:32.065Z,4.10
2019-05-13T20:42:01.807Z,2.90
2019-05-13T20:44:31.472Z,2.97
2019-05-13T20:47:01.699Z,2.80
2019-05-13T20:49:31.344Z,2.50
2019-05-13T20:52:00.751Z,1.80
2019-05-13T20:54:31.421Z,1.70
2019-05-13T20:57:01.998Z,2.40
2019-05-13T20:59:32.295Z,2.10
2019-05-13T21:02:02.309Z,1.73
2019-05-13T21:04:32.324Z,2.40
2019-05-13T21:07:02.282Z,2.13
2019-05-13T21:09:31.828Z,1.63
2019-05-13T21:12:01.960Z,1.93
2019-05-13T21:14:32.023Z,1.57
2019-05-13T21:17:01.599Z,1.77
2019-05-13T21:19:39.191Z,1.70
2019-05-13T21:22:03.533Z,2.30
2019-05-13T21:24:33.141Z,1.70
2019-05-13T21:27:02.438Z,1.50
2019-05-13T21:29:32.280Z,1.50
2019-05-13T21:32:02.173Z,1.87
2019-05-13T21:34:31.790Z,2.33
2019-05-13T21:37:02.406Z,1.60
2019-05-13T21:39:32.088Z,1.60
2019-05-13T21:42:02.392Z,1.80
2019-05-13T21:44:32.652Z,1.53
2019-05-13T21:47:02.368Z,1.77
2019-05-13T21:49:32.141Z,1.70
2019-05-13T21:52:01.899Z,2.10
2019-05-13T21:54:33.379Z,1.60
2019-05-13T21:57:02.559Z,1.40
2019-05-13T21:59:32.080Z,1.47
2019-05-13T22:02:01.763Z,1.43
2019-05-13T22:04:31.143Z,2.03
2019-05-13T22:07:01.524Z,1.87
2019-05-13T22:09:31.748Z,1.47
2019-05-13T22:12:01.961Z,1.73
2019-05-13T22:14:32.016Z,1.40
2019-05-13T22:17:01.814Z,1.50
2019-05-13T22:19:31.749Z,1.70
2019-05-13T22:22:02.297Z,1.30
2019-05-13T22:24:31.854Z,2.17
2019-05-13T22:27:01.882Z,2.03
2019-05-13T22:29:32.083Z,1.63
2019-05-13T22:32:02.287Z,1.40
2019-05-13T22:34:32.046Z,1.50
2019-05-13T22:37:02.684Z,1.50
2019-05-13T22:39:34.638Z,1.40
2019-05-13T22:42:03.068Z,2.10
2019-05-13T22:44:32.781Z,1.97
2019-05-13T22:47:02.609Z,1.83
2019-05-13T22:49:32.076Z,1.73
2019-05-13T22:52:01.611Z,1.70
2019-05-13T22:54:31.865Z,1.20
2019-05-13T22:57:01.461Z,1.40
2019-05-13T22:59:32.211Z,1.67
2019-05-13T23:02:01.689Z,1.87
2019-05-13T23:04:31.514Z,1.83
2019-05-13T23:07:01.432Z,1.70
2019-05-13T23:09:32.163Z,1.60
2019-05-13T23:12:01.808Z,1.70
2019-05-13T23:14:31.224Z,1.97
2019-05-13T23:17:02.228Z,1.70
2019-05-13T23:19:32.453Z,1.30
2019-05-13T23:22:01.849Z,1.50
2019-05-13T23:24:31.308Z,1.77
2019-05-13T23:27:02.107Z,1.73
2019-05-13T23:29:32.020Z,1.90
2019-05-13T23:32:01.653Z,1.80
2019-05-13T23:34:31.868Z,2.00
2019-05-13T23:37:01.457Z,1.80
2019-05-13T23:39:32.195Z,1.80
2019-05-13T23:42:01.586Z,1.70
2019-05-13T23:44:32.262Z,2.30
2019-05-13T23:47:02.565Z,2.10
2019-05-13T23:49:32.113Z,1.50
2019-05-13T23:52:02.486Z,2.25
2019-05-13T23:54:31.992Z,1.47
2019-05-13T23:57:01.313Z,1.93
2019-05-13T23:59:31.265Z,1.10
